Thessaloniki, Greece

10:33 AM EET on January 21, 2018 (GMT +0200)
Historical Center | | Change Station

Elev 92 ft 40.63 °N, 22.95 °E | Updated 3 minutes ago

Clear
Clear
46.2 °F
Feels Like 46 °F
N
1.0
Wind Variable Wind from WSW
Gusts 8.0 mph

Today
High -- | Low -- °F
--% Chance of Precip.
Yesterday
High -- | Low -- °F
Precip. -- in
Pressure 29.80 in
Visibility 6.2 miles
Clouds Few 3000 ft
Windchill 46 °F
Dew Point 40 °F
Humidity 80%
Rainfall 0.00 in
Snow Depth Not available.
7:46 AM 5:32 PM
Waxing Crescent, 16% visible
METAR LGTS 210820Z VRB01KT 9999 FEW030 07/03 Q1009 NOSIG
Pressure 29.80 in
Visibility 6.2 miles
Clouds Few 3000 ft
Windchill 46 °F
Dew Point 40 °F
Humidity 80%
Rainfall 0.00 in
Snow Depth Not available.
7:46 AM 5:32 PM
Waxing Crescent, 16% visible
METAR LGTS 210820Z VRB01KT 9999 FEW030 07/03 Q1009 NOSIG

Get Severe Weather Alerts

Thanks for signing up!

Be on the lookout for a verification email in your inbox.

You'll start receiving the daily forecast at 6 AM.

×

10-Day Weather Forecast

×

Almanac

Astronomy

Jan. 21, 2018 Rise Set
Actual Time
Civil Twilight
Nautical Twilight
Astronomical Twilight
Moon
Length of Visible Light
Length of Day
Tomorrow will be .
, % of the Moon is Illuminated

Today's Extremes

Country Highs Country Lows

Community

WunderPhotos

Category 6

Welcome to Category 6. This is the collective home for Weather Underground's featured writeups by Dr. Jeff Masters (right), Bob Henson (left), Chris Burt, and other regular contributors.

Nearby

Air Quality

  Air Quality AQ Index Pollutant
Not available.

Snow Depth

Station Depth Elevation

Earthquake Activity

City Distance Mag. Time & Date
Minimum magnitude displayed is 2.5.

Coastal Water Temperatures

Place Temperature

Stations

Nearby Weather Stations

Station Location Temp. Windchill Dew Point Humidity Wind Precip. Elev Updated Type